• Join FlightAware (Why Join?)
  • Login
  • US Flag 
09:57AM EDT


 

Airport Tracker/Info


-or-


 

Live Flight TrackerFlight Track Log ✈ CSN6819 ✈ 24-Sep-2013 ✈ ZWWW / URC - ZWTN / HTN

Flight Track Log - Related Links

Times and Time Zones

All times are in EDT time to prevent confusion due to time zone crossing. See the CSN6819 flight status page for this flight to view local times or setup timezone preferences in your user account.

Time Position Orientation Groundspeed Altitude Reporting Facility
EDT Latitude Longitude Course Direction KTS MPH feet Rate Location/Type
06:07AM 43.8099 87.3503 223° Southwest  Level Estimated
06:08AM 43.7126 87.2267 223° Southwest  Level Estimated
06:09AM 43.6152 87.1035 222° Southwest  Level Estimated
06:10AM 43.5177 86.9808 222° Southwest  Level Estimated
06:11AM 43.4199 86.8584 222° Southwest  Level Estimated
06:12AM 43.3221 86.7364 222° Southwest  Level Estimated
06:13AM 43.2242 86.6148 222° Southwest  Level Estimated
06:14AM 43.1261 86.4936 222° Southwest  Level Estimated
06:15AM 43.0279 86.3728 222° Southwest  Level Estimated
06:16AM 42.9295 86.2524 222° Southwest  Level Estimated
06:17AM 42.8311 86.1323 222° Southwest  Level Estimated
06:18AM 42.7325 86.0127 222° Southwest  Level Estimated
06:19AM 42.6338 85.8934 222° Southwest  Level Estimated
06:20AM 42.5349 85.7745 222° Southwest  Level Estimated
06:21AM 42.4360 85.6560 221° Southwest  Level Estimated
06:22AM 42.3369 85.5378 221° Southwest  Level Estimated
06:23AM 42.2377 85.4200 221° Southwest  Level Estimated
06:24AM 42.1384 85.3026 221° Southwest  Level Estimated
06:25AM 42.0389 85.1856 221° Southwest  Level Estimated
06:26AM 41.9394 85.0689 221° Southwest  Level Estimated
06:27AM 41.8397 84.9526 221° Southwest  Level Estimated
06:28AM 41.7399 84.8366 221° Southwest  Level Estimated
06:29AM 41.6400 84.7210 221° Southwest  Level Estimated
06:30AM 41.5400 84.6058 221° Southwest  Level Estimated
06:31AM 41.4398 84.4909 221° Southwest  Level Estimated
06:32AM 41.3396 84.3764 221° Southwest  Level Estimated
06:33AM 41.2392 84.2623 221° Southwest  Level Estimated
06:34AM 41.1387 84.1484 220° Southwest  Level Estimated
06:35AM 41.0381 84.0350 220° Southwest  Level Estimated
06:36AM 40.9374 83.9218 220° Southwest  Level Estimated
06:37AM 40.8366 83.8091 220° Southwest  Level Estimated
06:38AM 40.7357 83.6966 220° Southwest  Level Estimated
06:39AM 40.6347 83.5845 220° Southwest  Level Estimated
06:40AM 40.5335 83.4728 220° Southwest  Level Estimated
06:41AM 40.4323 83.3613 220° Southwest  Level Estimated
06:42AM 40.3309 83.2503 220° Southwest  Level Estimated
06:43AM 40.2295 83.1395 220° Southwest  Level Estimated
06:44AM 40.1279 83.0291 220° Southwest  Level Estimated
06:45AM 40.0262 82.9190 220° Southwest  Level Estimated
06:46AM 39.9245 82.8092 220° Southwest  Level Estimated
06:47AM 39.8226 82.6998 220° Southwest  Level Estimated
06:48AM 39.7206 82.5907 219° Southwest  Level Estimated
06:49AM 39.6185 82.4819 219° Southwest  Level Estimated
06:50AM 39.5164 82.3734 219° Southwest  Level Estimated
06:51AM 39.4141 82.2653 219° Southwest  Level Estimated
06:52AM 39.3117 82.1574 219° Southwest  Level Estimated
06:53AM 39.2092 82.0499 219° Southwest  Level Estimated
06:54AM 39.1066 81.9427 219° Southwest  Level Estimated
06:55AM 39.0040 81.8358 219° Southwest  Level Estimated
06:56AM 38.9012 81.7293 219° Southwest  Level Estimated
06:57AM 38.7983 81.6230 219° Southwest  Level Estimated
06:58AM 38.6954 81.5170 219° Southwest  Level Estimated
06:59AM 38.5923 81.4114 219° Southwest  Level Estimated
07:00AM 38.4891 81.3060 219° Southwest  Level Estimated
07:01AM 38.3859 81.2009 219° Southwest  Level Estimated
07:02AM 38.2825 81.0962 219° Southwest  Level Estimated
07:03AM 38.1791 80.9917 218° Southwest  Level Estimated
07:04AM 38.0756 80.8876 218° Southwest  Level Estimated
07:05AM 37.9720 80.7837 218° Southwest  Level Estimated
07:06AM 37.8682 80.6801 218° Southwest  Level Estimated
07:07AM 37.7644 80.5768 218° Southwest  Level Estimated
07:08AM 37.6605 80.4738 218° Southwest  Level Estimated
07:09AM 37.5566 80.3711 218° Southwest  Level Estimated
07:10AM 37.4525 80.2687 218° Southwest  Level Estimated
07:11AM 37.3483 80.1666 218° Southwest  Level Estimated
07:12AM 37.2441 80.0647 218° Southwest  Level Estimated
07:13AM 37.1398 79.9631 218° Southwest  Level Estimated
07:14AM 37.0385 79.8649 218° Southwest  Level Estimated
07:15AM 37.0385 79.8649 50° Northeast  Level Estimated
07:16AM 37.0385 79.8649 50° Northeast  Level Estimated
07:17AM 37.0385 79.8649 50° Northeast  Level Estimated
07:18AM 37.0385 79.8649 50° Northeast  Level Estimated
07:19AM 37.0385 79.8649 50° Northeast  Level Estimated
07:20AM 37.0385 79.8649 50° Northeast  Level Estimated
07:21AM 37.0385 79.8649 50° Northeast  Level Estimated
07:22AM 37.0385 79.8649 50° Northeast  Level Estimated
07:23AM 37.0385 79.8649 50° Northeast  Level Estimated
07:24AM 37.0385 79.8649 50° Northeast  Level Estimated
07:25AM 37.0385 79.8649 50° Northeast  Level Estimated
07:26AM 37.0385 79.8649 50° Northeast  Level Estimated
07:27AM 37.0385 79.8649 50° Northeast  Level Estimated
07:28AM 37.0385 79.8649 50° Northeast  Level Estimated
07:29AM 37.0385 79.8649 50° Northeast  Level Estimated
07:30AM 37.0385 79.8649 50° Northeast  Level Estimated